Time;durP1;ratioP1;P1;durP2;ratioP2;P2;SDS_P1;SDS_P2;PMS_P1;PMS_P2;Temp;Humidity;BMP_temperature;BMP_pressure;BME280_temperature;BME280_humidity;BME280_pressure;Samples;Min_cycle;Max_cycle;Signal;HPM_P1;HPM_P2
2022/12/26 00:01:38;;;;;;;;;;;;;;;7.17;100.00;96521.00;5075905;28;19952;-73
2022/12/26 00:04:04;;;;;;;;;;;;;;;7.14;100.00;96522.19;5075574;28;19953;-73
2022/12/26 00:06:31;;;;;;;;;;;;;;;7.14;100.00;96522.19;5075449;28;19953;-73
2022/12/26 00:08:57;;;;;;;;;;;;;;;7.13;100.00;96515.34;5075473;28;19950;-73
2022/12/26 00:11:23;;;;;;;;;;;;;;;7.13;100.00;96517.97;5075370;28;19945;-73
2022/12/26 00:13:53;;;;;;;;;;;;;;;7.13;100.00;96519.78;5075308;28;19954;-74
2022/12/26 00:16:19;;;;;;;;;;;;;;;7.13;100.00;96525.78;5059880;28;19952;-73
2022/12/26 00:18:45;;;;;;;;;;;;;;;7.14;100.00;96527.41;5075367;28;19980;-73
2022/12/26 00:21:13;;;;;;;;;;;;;;;7.13;100.00;96520.56;5075349;28;19952;-73
2022/12/26 00:23:39;;;;;;;;;;;;;;;7.11;100.00;96518.16;5075485;28;19945;-73
2022/12/26 00:26:06;;;;;;;;;;;;;;;7.11;100.00;96525.97;5074977;28;19951;-73
2022/12/26 00:28:32;;;;;;;;;;;;;;;7.12;100.00;96529.41;5074927;28;19982;-73
2022/12/26 00:31:01;;;;;;;;;;;;;;;7.11;100.00;96535.59;5075146;28;20411;-73
2022/12/26 00:33:27;;;;;;;;;;;;;;;7.10;100.00;96526.19;5074338;28;19950;-73
2022/12/26 00:35:53;;;;;;;;;;;;;;;7.09;100.00;96524.56;5073762;28;19953;-73
2022/12/26 00:38:19;;;;;;;;;;;;;;;7.10;100.00;96519.16;5074736;28;20057;-73
2022/12/26 00:40:45;;;;;;;;;;;;;;;7.11;100.00;96518.16;5074884;28;19992;-73
2022/12/26 00:43:11;;;;;;;;;;;;;;;7.13;100.00;96515.34;5074706;28;20003;-73
2022/12/26 00:45:36;;;;;;;;;;;;;;;7.14;100.00;96505.72;5074786;28;19955;-73
2022/12/26 00:48:02;;;;;;;;;;;;;;;7.13;100.00;96517.16;5074656;28;20003;-73
2022/12/26 00:50:28;;;;;;;;;;;;;;;7.14;100.00;96524.81;5074622;28;20040;-73
2022/12/26 00:52:55;;;;;;;;;;;;;;;7.14;100.00;96521.38;5074801;28;20001;-73
2022/12/26 00:55:21;;;;;;;;;;;;;;;7.13;100.00;96517.16;5074598;28;19957;-73
2022/12/26 00:57:47;;;;;;;;;;;;;;;7.11;100.00;96510.34;5074465;28;20065;-73
2022/12/26 01:00:13;;;;;;;;;;;;;;;7.11;100.00;96497.28;5074322;28;19964;-73
2022/12/26 01:02:39;;;;;;;;;;;;;;;7.10;100.00;96510.53;5074739;28;20406;-73
2022/12/26 01:05:06;;;;;;;;;;;;;;;7.09;100.00;96514.94;5074555;28;19962;-73
2022/12/26 01:07:34;;;;;;;;;;;;;;;7.08;100.00;96518.56;5074114;28;20283;-73
2022/12/26 01:09:59;;;;;;;;;;;;;;;7.09;100.00;96514.13;5074775;28;19959;-73
2022/12/26 01:12:26;;;;;;;;;;;;;;;7.08;100.00;96509.94;5074378;28;19953;-73
2022/12/26 01:14:54;;;;;;;;;;;;;;;7.08;100.00;96512.53;5074534;28;20398;-73
2022/12/26 01:17:20;;;;;;;;;;;;;;;7.06;100.00;96515.34;5074126;28;19969;-73
2022/12/26 01:19:46;;;;;;;;;;;;;;;7.05;100.00;96511.09;5056415;28;19955;-73
2022/12/26 01:22:12;;;;;;;;;;;;;;;7.06;100.00;96514.53;5072817;28;19965;-73
2022/12/26 01:24:38;;;;;;;;;;;;;;;7.06;100.00;96524.97;5074766;28;19963;-73
2022/12/26 01:27:04;;;;;;;;;;;;;;;7.05;100.00;96520.75;5073475;28;20411;-73
2022/12/26 01:29:30;;;;;;;;;;;;;;;7.05;100.00;96510.31;5073787;28;20406;-73
2022/12/26 01:31:56;;;;;;;;;;;;;;;7.05;100.00;96523.34;5073971;28;20493;-73
2022/12/26 01:34:21;;;;;;;;;;;;;;;7.04;100.00;96521.75;5073817;28;19978;-73
2022/12/26 01:36:47;;;;;;;;;;;;;;;7.03;100.00;96514.91;5073822;28;19976;-73
2022/12/26 01:39:13;;;;;;;;;;;;;;;7.03;100.00;96523.53;5073887;28;20332;-73
2022/12/26 01:41:39;;;;;;;;;;;;;;;7.02;100.00;96527.16;5073580;28;19958;-73
2022/12/26 01:44:25;;;;;;;;;;;;;;;7.01;100.00;96524.72;5073808;28;19995;-73
2022/12/26 01:46:51;;;;;;;;;;;;;;;6.99;100.00;96532.75;5073502;28;19961;-73
2022/12/26 01:49:17;;;;;;;;;;;;;;;6.98;100.00;96535.56;5073758;28;19950;-73
2022/12/26 01:51:45;;;;;;;;;;;;;;;6.98;100.00;96538.97;5073604;28;19955;-73
2022/12/26 01:54:12;;;;;;;;;;;;;;;6.98;100.00;96528.53;5073795;28;19953;-73
2022/12/26 01:56:39;;;;;;;;;;;;;;;6.98;100.00;96533.75;5073615;28;20313;-74
2022/12/26 01:59:08;;;;;;;;;;;;;;;6.97;100.00;96537.38;5074209;28;19988;-73
2022/12/26 02:01:36;;;;;;;;;;;;;;;6.98;100.00;96531.13;5073499;28;19954;-73
2022/12/26 02:06:49;;;;;;;;;;;;;;;6.96;100.00;96514.88;5073547;28;19947;-74
2022/12/26 02:09:15;;;;;;;;;;;;;;;6.95;100.00;96521.09;5073818;28;19956;-73
2022/12/26 02:11:43;;;;;;;;;;;;;;;6.95;100.00;96521.09;5072806;28;20330;-73
2022/12/26 02:14:09;;;;;;;;;;;;;;;6.94;100.00;96516.88;5074247;28;19955;-73
2022/12/26 02:16:36;;;;;;;;;;;;;;;6.94;100.00;96511.66;5073303;28;20366;-73
2022/12/26 02:19:03;;;;;;;;;;;;;;;6.96;100.00;96514.09;5073608;28;19971;-73
2022/12/26 02:21:32;;;;;;;;;;;;;;;6.94;100.00;96522.09;5073499;28;19958;-74
2022/12/26 02:24:01;;;;;;;;;;;;;;;6.95;100.00;96522.88;5073555;28;19966;-73
2022/12/26 02:26:41;;;;;;;;;;;;;;;6.92;100.00;96539.72;5073355;28;19958;-73
2022/12/26 02:29:40;;;;;;;;;;;;;;;6.93;100.00;96545.75;5073436;28;20403;-73
2022/12/26 02:32:11;;;;;;;;;;;;;;;6.96;100.00;96551.38;5037981;28;20321;-73
2022/12/26 02:34:40;;;;;;;;;;;;;;;6.97;100.00;96552.19;5073338;28;19953;-73
2022/12/26 02:37:21;;;;;;;;;;;;;;;6.96;100.00;96527.91;5073069;28;20464;-73
2022/12/26 02:40:08;;;;;;;;;;;;;;;6.97;100.00;96539.97;5075719;28;19956;-73
2022/12/26 02:42:52;;;;;;;;;;;;;;;6.98;100.00;96538.16;5059417;28;19953;-73
2022/12/26 02:48:10;;;;;;;;;;;;;;;6.96;100.00;96542.75;5076540;28;19961;-73
2022/12/26 03:14:23;;;;;;;;;;;;;;;6.94;100.00;96542.94;4975476;28;20354;-73
2022/12/26 03:19:37;;;;;;;;;;;;;;;6.96;100.00;96529.72;5063662;28;19968;-73
2022/12/26 03:22:29;;;;;;;;;;;;;;;6.97;100.00;96533.94;5076386;28;19950;-73
2022/12/26 03:27:36;;;;;;;;;;;;;;;6.98;100.00;96518.09;5061484;28;19952;-73
2022/12/26 03:32:47;;;;;;;;;;;;;;;7.01;100.00;96524.72;5076034;28;19956;-73
2022/12/26 03:35:13;;;;;;;;;;;;;;;7.01;100.00;96511.69;5076138;28;20410;-73
2022/12/26 03:37:49;;;;;;;;;;;;;;;7.02;100.00;96508.91;5076388;28;20306;-73
2022/12/26 04:20:21;;;;;;;;;;;;;;;7.10;100.00;96527.00;5075341;28;19950;-73
2022/12/26 04:45:30;;;;;;;;;;;;;;;6.93;100.00;96527.50;5074659;28;19956;-73
2022/12/26 04:50:50;;;;;;;;;;;;;;;6.94;100.00;96527.31;5074772;28;19952;-73
2022/12/26 04:53:16;;;;;;;;;;;;;;;6.97;100.00;96528.72;5074916;28;19953;-72
2022/12/26 04:55:42;;;;;;;;;;;;;;;7.02;100.00;96524.53;5074699;28;19957;-73
2022/12/26 04:58:08;;;;;;;;;;;;;;;7.04;100.00;96525.16;5074391;28;20404;-73
2022/12/26 05:00:34;;;;;;;;;;;;;;;7.04;100.00;96529.56;5074407;28;20391;-74
2022/12/26 05:11:26;;;;;;;;;;;;;;;7.03;100.00;96507.09;5063982;28;19959;-73
2022/12/26 05:13:53;;;;;;;;;;;;;;;7.01;100.00;96502.06;5074099;28;20326;-73
2022/12/26 05:30:05;;;;;;;;;;;;;;;7.05;100.00;96512.91;5073955;28;20330;-73
2022/12/26 05:35:16;;;;;;;;;;;;;;;7.04;100.00;96516.53;5073968;28;20437;-73
2022/12/26 05:37:42;;;;;;;;;;;;;;;7.02;100.00;96505.50;5073246;28;19977;-73
2022/12/26 05:40:08;;;;;;;;;;;;;;;7.02;100.00;96518.53;5073638;28;20400;-73
2022/12/26 05:42:34;;;;;;;;;;;;;;;7.02;100.00;96518.53;5073677;28;20328;-73
2022/12/26 05:45:00;;;;;;;;;;;;;;;7.02;100.00;96529.75;5073858;28;19991;-73
2022/12/26 05:47:26;;;;;;;;;;;;;;;7.01;100.00;96528.13;5073341;28;20415;-73
2022/12/26 05:49:51;;;;;;;;;;;;;;;7.02;100.00;96534.19;5074001;28;19947;-73
2022/12/26 05:52:17;;;;;;;;;;;;;;;7.04;100.00;96529.56;5055888;28;20006;-73
2022/12/26 05:54:43;;;;;;;;;;;;;;;7.05;100.00;96544.22;5073616;28;20039;-73
2022/12/26 05:57:09;;;;;;;;;;;;;;;7.05;100.00;96545.00;5073871;28;19951;-73
2022/12/26 05:59:35;;;;;;;;;;;;;;;7.07;100.00;96534.38;5073533;28;20001;-72
2022/12/26 06:02:01;;;;;;;;;;;;;;;7.06;100.00;96530.97;5073697;28;20378;-74
2022/12/26 06:04:28;;;;;;;;;;;;;;;7.07;100.00;96519.53;5055745;28;19951;-73
2022/12/26 06:06:55;;;;;;;;;;;;;;;7.10;100.00;96515.75;5055677;28;20337;-73
2022/12/26 06:09:21;;;;;;;;;;;;;;;7.17;100.00;96515.78;5073382;28;19971;-73
2022/12/26 06:11:48;;;;;;;;;;;;;;;7.22;100.00;96518.59;5073569;28;19952;-73
2022/12/26 06:14:14;;;;;;;;;;;;;;;7.26;100.00;96519.81;5074770;28;19953;-73
2022/12/26 06:16:40;;;;;;;;;;;;;;;7.27;100.00;96524.06;5058694;28;20353;-74
2022/12/26 06:19:06;;;;;;;;;;;;;;;7.27;100.00;96524.06;5077285;28;19967;-73
2022/12/26 06:21:32;;;;;;;;;;;;;;;7.27;100.00;96530.06;5077506;28;20388;-73
2022/12/26 06:23:58;;;;;;;;;;;;;;;7.28;100.00;96513.41;5077312;28;19959;-73
2022/12/26 06:26:24;;;;;;;;;;;;;;;7.27;100.00;96511.81;5077494;28;19953;-73
2022/12/26 06:28:50;;;;;;;;;;;;;;;7.28;100.00;96508.19;5077229;28;20428;-73
2022/12/26 06:31:19;;;;;;;;;;;;;;;7.29;100.00;96522.84;5077418;28;20390;-74
2022/12/26 06:33:45;;;;;;;;;;;;;;;7.30;100.00;96514.00;5077120;28;19957;-73
2022/12/26 06:36:12;;;;;;;;;;;;;;;7.34;100.00;96511.03;5077236;28;19971;-73
2022/12/26 06:38:39;;;;;;;;;;;;;;;7.35;100.00;96505.63;5077023;28;19973;-73
2022/12/26 06:41:05;;;;;;;;;;;;;;;7.37;100.00;96505.41;5077187;28;20324;-73
2022/12/26 06:43:31;;;;;;;;;;;;;;;7.37;100.00;96508.84;5077146;28;19953;-73
2022/12/26 06:45:58;;;;;;;;;;;;;;;7.39;100.00;96511.25;5077018;28;20367;-73
2022/12/26 06:48:24;;;;;;;;;;;;;;;7.36;100.00;96509.03;5077142;28;20401;-73
2022/12/26 06:50:50;;;;;;;;;;;;;;;7.36;100.00;96506.44;5076817;28;19966;-74
2022/12/26 06:53:16;;;;;;;;;;;;;;;7.37;100.00;96503.63;5077218;28;20040;-73
2022/12/26 06:55:42;;;;;;;;;;;;;;;7.35;100.00;96504.81;5077524;28;20350;-73
2022/12/26 06:58:09;;;;;;;;;;;;;;;7.35;100.00;96508.25;5076519;28;20357;-73
2022/12/26 07:00:35;;;;;;;;;;;;;;;7.34;100.00;96501.41;5076722;28;19963;-73
2022/12/26 07:03:01;;;;;;;;;;;;;;;7.32;100.00;96501.59;5076961;28;19959;-73
2022/12/26 07:05:27;;;;;;;;;;;;;;;7.34;100.00;96500.59;5076846;28;20331;-74
2022/12/26 07:07:53;;;;;;;;;;;;;;;7.31;100.00;96496.59;5076575;28;19959;-73
2022/12/26 07:10:19;;;;;;;;;;;;;;;7.30;100.00;96505.41;5076725;28;20001;-74
2022/12/26 07:12:45;;;;;;;;;;;;;;;7.30;100.00;96510.59;5077050;28;20335;-73
2022/12/26 07:15:11;;;;;;;;;;;;;;;7.30;100.00;96513.22;5076583;28;19968;-74
2022/12/26 07:17:37;;;;;;;;;;;;;;;7.28;100.00;96520.44;5058611;28;19947;-73
2022/12/26 07:20:03;;;;;;;;;;;;;;;7.29;100.00;96512.41;5076273;28;20042;-73
2022/12/26 07:22:29;;;;;;;;;;;;;;;7.29;100.00;96519.44;5076821;28;20411;-73
2022/12/26 07:24:55;;;;;;;;;;;;;;;7.27;100.00;96522.25;5057751;28;19957;-73
2022/12/26 07:27:21;;;;;;;;;;;;;;;7.28;100.00;96529.06;5076175;28;20404;-73
2022/12/26 07:29:47;;;;;;;;;;;;;;;7.28;100.00;96525.66;5076062;28;19955;-73
2022/12/26 07:32:13;;;;;;;;;;;;;;;7.28;100.00;96520.44;5076059;28;20419;-73
2022/12/26 07:34:39;;;;;;;;;;;;;;;7.26;100.00;96532.88;5076275;28;20015;-73
2022/12/26 07:37:05;;;;;;;;;;;;;;;7.26;100.00;96536.28;5058320;28;19979;-73
2022/12/26 07:39:31;;;;;;;;;;;;;;;7.28;100.00;96529.06;5076034;28;20305;-73
2022/12/26 07:41:57;;;;;;;;;;;;;;;7.29;100.00;96529.88;5076141;28;20046;-73
2022/12/26 07:44:27;;;;;;;;;;;;;;;7.30;100.00;96539.31;5075899;28;20318;-73
2022/12/26 07:46:54;;;;;;;;;;;;;;;7.30;100.00;96542.72;5075844;28;19951;-73
2022/12/26 07:49:19;;;;;;;;;;;;;;;7.30;100.00;96553.16;5075925;28;19954;-73
2022/12/26 07:51:45;;;;;;;;;;;;;;;7.30;100.00;96552.34;5075958;28;20010;-73
2022/12/26 07:54:12;;;;;;;;;;;;;;;7.29;100.00;96555.97;5075979;28;20047;-74
2022/12/26 07:56:38;;;;;;;;;;;;;;;7.31;100.00;96546.16;5057934;28;20022;-73
2022/12/26 07:59:04;;;;;;;;;;;;;;;7.32;100.00;96550.34;5075589;28;19967;-74
2022/12/26 08:01:30;;;;;;;;;;;;;;;7.33;100.00;96554.59;5074804;28;19962;-74
2022/12/26 08:03:56;;;;;;;;;;;;;;;7.33;100.00;96557.19;5075510;28;19959;-74
2022/12/26 08:06:22;;;;;;;;;;;;;;;7.33;100.00;96554.59;5075607;28;19955;-74
2022/12/26 08:08:49;;;;;;;;;;;;;;;7.31;100.00;96546.16;5075633;28;19963;-74
2022/12/26 08:11:17;;;;;;;;;;;;;;;7.30;100.00;96544.53;5075657;28;19954;-74
2022/12/26 08:13:43;;;;;;;;;;;;;;;7.28;100.00;96536.88;5075496;28;19960;-74
2022/12/26 08:16:10;;;;;;;;;;;;;;;7.28;100.00;96539.50;5075295;28;20444;-75
2022/12/26 08:18:36;;;;;;;;;;;;;;;7.28;100.00;96530.88;5075348;28;19960;-74
2022/12/26 08:21:02;;;;;;;;;;;;;;;7.28;100.00;96536.09;5075817;28;20012;-74
2022/12/26 08:23:29;;;;;;;;;;;;;;;7.28;100.00;96549.94;5075139;28;19950;-74
2022/12/26 08:25:55;;;;;;;;;;;;;;;7.27;100.00;96553.53;5075296;28;19948;-74
2022/12/26 08:28:21;;;;;;;;;;;;;;;7.29;100.00;96561.19;5060465;28;20281;-74
2022/12/26 08:30:48;;;;;;;;;;;;;;;7.31;100.00;96560.00;5074853;28;19962;-75
2022/12/26 08:33:14;;;;;;;;;;;;;;;7.34;100.00;96566.63;5075370;28;19952;-74
2022/12/26 08:35:40;;;;;;;;;;;;;;;7.38;100.00;96574.88;5075051;28;19949;-74
2022/12/26 08:38:06;;;;;;;;;;;;;;;7.38;100.00;96588.72;5074578;28;20341;-74
2022/12/26 08:40:32;;;;;;;;;;;;;;;7.35;100.00;96593.50;5074986;28;20518;-74
2022/12/26 08:42:58;;;;;;;;;;;;;;;7.34;100.00;96603.13;5074654;28;19955;-74
2022/12/26 08:45:24;;;;;;;;;;;;;;;7.35;100.00;96607.38;5074797;28;19964;-74
2022/12/26 08:47:50;;;;;;;;;;;;;;;7.35;100.00;96611.75;5075103;28;20359;-74
2022/12/26 08:50:16;;;;;;;;;;;;;;;7.34;100.00;96610.97;5074678;28;19960;-74
2022/12/26 08:52:42;;;;;;;;;;;;;;;7.35;100.00;96615.19;5074839;28;19952;-74
2022/12/26 08:55:08;;;;;;;;;;;;;;;7.35;100.00;96609.97;5074607;28;20423;-74
2022/12/26 08:57:34;;;;;;;;;;;;;;;7.38;100.00;96614.00;5074522;28;19956;-74
2022/12/26 09:00:00;;;;;;;;;;;;;;;7.40;100.00;96625.84;5074346;28;19972;-74
2022/12/26 09:02:26;;;;;;;;;;;;;;;7.43;100.00;96633.31;5074254;28;19953;-74
2022/12/26 09:04:52;;;;;;;;;;;;;;;7.46;100.00;96638.13;5074326;28;19955;-74
2022/12/26 09:07:18;;;;;;;;;;;;;;;7.49;100.00;96639.53;5074788;28;19983;-73
2022/12/26 09:09:44;;;;;;;;;;;;;;;7.51;100.00;96633.13;5074474;28;19953;-74
2022/12/26 09:12:10;;;;;;;;;;;;;;;7.55;100.00;96635.34;5074130;28;19970;-74
2022/12/26 09:14:35;;;;;;;;;;;;;;;7.56;100.00;96637.78;5074475;28;19956;-74
2022/12/26 09:17:01;;;;;;;;;;;;;;;7.59;100.00;96639.19;5074108;28;20044;-75
2022/12/26 09:19:31;;;;;;;;;;;;;;;7.63;100.00;96637.81;5074007;28;19968;-74
2022/12/26 09:24:42;;;;;;;;;;;;;;;7.70;100.00;96657.69;5074279;28;19949;-74
2022/12/26 09:27:08;;;;;;;;;;;;;;;7.74;100.00;96663.34;5074131;28;19949;-74
2022/12/26 09:29:36;;;;;;;;;;;;;;;7.79;100.00;96663.59;5074261;28;19948;-74
2022/12/26 09:32:03;;;;;;;;;;;;;;;7.83;100.00;96672.66;5074308;28;19962;-74
2022/12/26 09:34:29;;;;;;;;;;;;;;;7.84;100.00;96666.41;5073899;28;19952;-74
2022/12/26 09:36:55;;;;;;;;;;;;;;;7.87;100.00;96676.47;5073807;28;19987;-74
2022/12/26 09:39:21;;;;;;;;;;;;;;;7.87;100.00;96667.81;5073880;28;20435;-74
2022/12/26 09:41:58;;;;;;;;;;;;;;;7.88;100.00;96674.66;5073888;28;20379;-74
2022/12/26 09:44:24;;;;;;;;;;;;;;;7.90;100.00;96677.88;5073966;28;19953;-74
2022/12/26 09:47:09;;;;;;;;;;;;;;;7.92;100.00;96683.72;5056060;28;19958;-74
2022/12/26 09:49:54;;;;;;;;;;;;;;;7.93;100.00;96688.72;5059972;28;19951;-74
2022/12/26 09:52:35;;;;;;;;;;;;;;;7.95;100.00;96692.97;5073753;28;19950;-74
2022/12/26 09:55:03;;;;;;;;;;;;;;;7.96;100.00;96695.38;5046367;28;19956;-74
2022/12/26 09:57:36;;;;;;;;;;;;;;;7.98;100.00;96693.38;5073692;28;19953;-75
2022/12/26 10:00:04;;;;;;;;;;;;;;;8.00;100.00;96704.44;5073494;28;19984;-74
2022/12/26 10:02:30;;;;;;;;;;;;;;;8.00;100.00;96701.84;5073650;28;19949;-75
2022/12/26 10:04:56;;;;;;;;;;;;;;;8.02;100.00;96701.63;5073429;28;19951;-74
2022/12/26 10:07:21;;;;;;;;;;;;;;;8.04;100.00;96704.84;5073709;28;19958;-74
2022/12/26 10:10:08;;;;;;;;;;;;;;;8.05;100.00;96709.09;5073521;28;19996;-74
2022/12/26 10:13:10;;;;;;;;;;;;;;;8.05;100.00;96712.50;5073549;28;20427;-74
2022/12/26 10:15:41;;;;;;;;;;;;;;;8.05;100.00;96727.38;4991869;28;19960;-74
2022/12/26 10:18:33;;;;;;;;;;;;;;;8.06;100.00;96726.34;5060253;28;19957;-74
2022/12/26 10:21:17;;;;;;;;;;;;;;;8.08;100.00;96734.78;5059339;28;20332;-74
2022/12/26 10:23:46;;;;;;;;;;;;;;;8.09;100.00;96736.41;5073297;28;20446;-74
2022/12/26 10:26:14;;;;;;;;;;;;;;;8.10;100.00;96740.63;5073579;28;19951;-74
2022/12/26 10:28:46;;;;;;;;;;;;;;;8.11;100.00;96750.91;5073319;28;20392;-74
2022/12/26 10:31:16;;;;;;;;;;;;;;;8.12;100.00;96742.03;5073349;28;19959;-74
2022/12/26 10:33:45;;;;;;;;;;;;;;;8.13;100.00;96735.84;5073085;28;19957;-75
2022/12/26 10:36:30;;;;;;;;;;;;;;;8.16;100.00;96745.09;5073162;28;20440;-74
2022/12/26 10:38:57;;;;;;;;;;;;;;;8.18;100.00;96753.53;5073169;28;19961;-74
2022/12/26 10:41:25;;;;;;;;;;;;;;;8.20;100.00;96764.59;5072847;28;19949;-75
2022/12/26 10:43:51;;;;;;;;;;;;;;;8.21;100.00;96765.38;5073383;28;19952;-74
2022/12/26 10:46:36;;;;;;;;;;;;;;;8.21;100.00;96752.31;5073152;28;20321;-74
2022/12/26 10:49:02;;;;;;;;;;;;;;;8.20;100.00;96745.50;5072453;28;19943;-74
2022/12/26 10:51:28;;;;;;;;;;;;;;;8.21;100.00;96758.38;5073264;28;20048;-74
2022/12/26 10:53:54;;;;;;;;;;;;;;;8.22;100.00;96762.59;5072990;28;19958;-74
2022/12/26 10:56:21;;;;;;;;;;;;;;;8.24;100.00;96752.75;5055475;28;19957;-74
2022/12/26 10:59:01;;;;;;;;;;;;;;;8.27;100.00;96759.38;5073235;28;19960;-75
2022/12/26 11:01:26;;;;;;;;;;;;;;;8.28;100.00;96763.63;5062061;28;20332;-74
2022/12/26 11:03:53;;;;;;;;;;;;;;;8.27;100.00;96759.38;5076774;28;19983;-74
2022/12/26 11:06:26;;;;;;;;;;;;;;;8.28;100.00;96755.78;5076752;28;19967;-75
2022/12/26 11:08:53;;;;;;;;;;;;;;;8.29;100.00;96749.56;5076864;28;19961;-74
2022/12/26 11:11:21;;;;;;;;;;;;;;;8.29;100.00;96741.72;5076544;28;19958;-74
2022/12/26 11:13:56;;;;;;;;;;;;;;;8.30;100.00;96733.69;5076203;28;19962;-75
2022/12/26 11:16:25;;;;;;;;;;;;;;;8.34;100.00;96729.69;5076776;28;19950;-74
2022/12/26 11:18:52;;;;;;;;;;;;;;;8.41;100.00;96728.94;5076360;28;19946;-74
2022/12/26 11:21:22;;;;;;;;;;;;;;;8.44;100.00;96725.91;5076332;28;20319;-74
2022/12/26 11:23:51;;;;;;;;;;;;;;;8.45;100.00;96738.78;5076363;28;19953;-74
2022/12/26 11:26:19;;;;;;;;;;;;;;;8.47;100.00;96755.06;5076148;28;19953;-75
2022/12/26 11:28:45;;;;;;;;;;;;;;;8.48;100.00;96751.47;5076644;28;19972;-74
2022/12/26 11:31:26;;;;;;;;;;;;;;;8.48;100.00;96750.66;5076046;28;20047;-74
2022/12/26 11:33:52;;;;;;;;;;;;;;;8.48;100.00;96748.84;5076374;28;20394;-74
2022/12/26 11:36:21;;;;;;;;;;;;;;;8.48;100.00;96740.19;5076115;28;20051;-74
2022/12/26 11:38:49;;;;;;;;;;;;;;;8.46;100.00;96743.03;5076339;28;19956;-74
2022/12/26 11:41:33;;;;;;;;;;;;;;;8.44;100.00;96747.63;5076017;28;19992;-74
2022/12/26 11:44:08;;;;;;;;;;;;;;;8.43;100.00;96747.81;5075893;28;20393;-74
2022/12/26 11:46:54;;;;;;;;;;;;;;;8.42;100.00;96728.72;5075773;28;19951;-74
2022/12/26 11:49:29;;;;;;;;;;;;;;;8.42;100.00;96728.72;5062759;28;19958;-74
2022/12/26 11:51:56;;;;;;;;;;;;;;;8.41;100.00;96718.47;5075943;28;19958;-76
2022/12/26 11:54:45;;;;;;;;;;;;;;;8.40;100.00;96711.59;5075686;28;19946;-75
2022/12/26 11:57:15;;;;;;;;;;;;;;;8.40;100.00;96711.59;5066766;28;19964;-74
2022/12/26 11:59:41;;;;;;;;;;;;;;;8.39;100.00;96712.59;5075828;28;19988;-74
2022/12/26 12:02:27;;;;;;;;;;;;;;;8.40;100.00;96709.81;5075658;28;19960;-74
2022/12/26 12:05:00;;;;;;;;;;;;;;;8.43;100.00;96719.88;5075783;28;19955;-74
2022/12/26 12:07:39;;;;;;;;;;;;;;;8.45;100.00;96732.75;5075962;28;20409;-74
2022/12/26 12:10:24;;;;;;;;;;;;;;;8.48;100.00;96742.81;5062524;28;19953;-74
2022/12/26 12:12:58;;;;;;;;;;;;;;;8.50;100.00;96753.88;5074035;28;19954;-74
2022/12/26 12:15:30;;;;;;;;;;;;;;;8.51;100.00;96745.84;5075574;28;20420;-74
2022/12/26 12:17:56;;;;;;;;;;;;;;;8.50;100.00;96732.97;5075308;28;19948;-75
2022/12/26 12:20:24;;;;;;;;;;;;;;;8.47;100.00;96721.09;5075851;28;19999;-74
2022/12/26 12:23:08;;;;;;;;;;;;;;;8.44;100.00;96711.06;5057525;28;19952;-74
2022/12/26 12:25:37;;;;;;;;;;;;;;;8.43;100.00;96719.88;5063251;28;19950;-73
2022/12/26 12:28:09;;;;;;;;;;;;;;;8.39;100.00;96723.84;5075329;28;19964;-74
2022/12/26 12:30:58;;;;;;;;;;;;;;;8.40;100.00;96722.03;5074883;28;19957;-74
2022/12/26 12:33:46;;;;;;;;;;;;;;;8.37;100.00;96718.03;5075176;28;20621;-75
2022/12/26 12:36:17;;;;;;;;;;;;;;;8.37;100.00;96698.94;5074748;28;20343;-74
2022/12/26 12:38:43;;;;;;;;;;;;;;;8.37;100.00;96702.34;5074721;28;19958;-74
2022/12/26 12:41:27;;;;;;;;;;;;;;;8.39;100.00;96705.56;5074743;28;20421;-74
2022/12/26 12:43:56;;;;;;;;;;;;;;;8.39;100.00;96705.56;5074908;28;19960;-74
2022/12/26 12:46:30;;;;;;;;;;;;;;;8.42;100.00;96709.63;5075227;28;20033;-74
2022/12/26 12:49:11;;;;;;;;;;;;;;;8.43;100.00;96700.78;5074746;28;19947;-74
2022/12/26 12:51:42;;;;;;;;;;;;;;;8.44;100.00;96710.22;5074987;28;19956;-74
2022/12/26 12:54:27;;;;;;;;;;;;;;;8.44;100.00;96700.59;5074590;28;19958;-75
2022/12/26 12:56:52;;;;;;;;;;;;;;;8.42;100.00;96714.84;5074786;28;19948;-74
2022/12/26 12:59:36;;;;;;;;;;;;;;;8.41;100.00;96708.00;5074402;28;19955;-74
2022/12/26 13:02:08;;;;;;;;;;;;;;;8.40;100.00;96707.19;5074427;28;19966;-74
2022/12/26 13:04:40;;;;;;;;;;;;;;;8.37;100.00;96702.34;5074355;28;19954;-74
2022/12/26 13:07:13;;;;;;;;;;;;;;;8.36;100.00;96700.75;5074627;28;19957;-74
2022/12/26 13:09:48;;;;;;;;;;;;;;;8.39;100.00;96715.22;5074271;28;19952;-74
2022/12/26 13:12:19;;;;;;;;;;;;;;;8.41;100.00;96727.09;5073926;28;19965;-74
2022/12/26 13:14:47;;;;;;;;;;;;;;;8.42;100.00;96720.06;5074650;28;19958;-74
2022/12/26 13:17:17;;;;;;;;;;;;;;;8.41;100.00;96721.09;5074185;28;19975;-74
2022/12/26 13:19:48;;;;;;;;;;;;;;;8.40;100.00;96695.91;5074166;28;19966;-74
2022/12/26 13:22:22;;;;;;;;;;;;;;;8.41;100.00;96682.69;5074258;28;19951;-74
2022/12/26 13:24:50;;;;;;;;;;;;;;;8.36;100.00;96653.72;5073924;28;20347;-74
2022/12/26 13:27:31;;;;;;;;;;;;;;;8.33;100.00;96664.53;5074156;28;20320;-74
2022/12/26 13:29:57;;;;;;;;;;;;;;;8.35;100.00;96628.56;5073976;28;19967;-74
2022/12/26 13:32:25;;;;;;;;;;;;;;;8.36;100.00;96669.38;5074004;28;19954;-74
2022/12/26 13:34:52;;;;;;;;;;;;;;;8.40;100.00;96695.91;5074045;28;19956;-74
2022/12/26 13:37:33;;;;;;;;;;;;;;;8.40;100.00;96693.28;5073906;28;20439;-74
2022/12/26 13:40:02;;;;;;;;;;;;;;;8.39;100.00;96700.34;5073614;28;19974;-74
2022/12/26 13:45:41;;;;;;;;;;;;;;;8.37;100.00;96678.81;5044183;28;19953;-74
2022/12/26 13:48:33;;;;;;;;;;;;;;;8.37;100.00;96664.97;5073816;28;19955;-74
2022/12/26 13:51:00;;;;;;;;;;;;;;;8.38;100.00;96650.88;5065750;28;19949;-74
2022/12/26 13:53:26;;;;;;;;;;;;;;;8.39;100.00;96645.47;5073756;28;19943;-74
2022/12/26 13:55:53;;;;;;;;;;;;;;;8.40;100.00;96661.94;5073823;28;20136;-75
2022/12/26 13:58:36;;;;;;;;;;;;;;;8.39;100.00;96668.19;5055606;28;19953;-74
2022/12/26 14:01:20;;;;;;;;;;;;;;;8.40;100.00;96675.81;5074025;28;19975;-74
2022/12/26 14:03:49;;;;;;;;;;;;;;;8.40;100.00;96651.47;5059891;28;19955;-74
2022/12/26 14:06:21;;;;;;;;;;;;;;;8.40;100.00;96651.47;5073846;28;19950;-74
2022/12/26 14:08:57;;;;;;;;;;;;;;;8.37;100.00;96650.06;5055640;28;19948;-74
2022/12/26 14:11:32;;;;;;;;;;;;;;;8.35;100.00;96654.69;5055908;28;19951;-75
2022/12/26 14:14:17;;;;;;;;;;;;;;;8.36;100.00;96658.09;5073668;28;19958;-74
2022/12/26 14:16:52;;;;;;;;;;;;;;;8.35;100.00;96654.69;5073509;28;20337;-74
2022/12/26 14:19:36;;;;;;;;;;;;;;;8.34;100.00;96653.91;5073418;28;19960;-74
2022/12/26 14:22:02;;;;;;;;;;;;;;;8.35;100.00;96646.84;5072600;28;19955;-75
2022/12/26 14:24:32;;;;;;;;;;;;;;;8.35;100.00;96646.84;5074045;28;19955;-74
2022/12/26 14:27:16;;;;;;;;;;;;;;;8.35;100.00;96646.84;5073427;28;19960;-74
2022/12/26 14:29:49;;;;;;;;;;;;;;;8.37;100.00;96657.91;5055871;28;19956;-74
2022/12/26 14:32:36;;;;;;;;;;;;;;;8.36;100.00;96645.03;5073537;28;19953;-74
2022/12/26 14:35:02;;;;;;;;;;;;;;;8.34;100.00;96664.34;5062879;28;19961;-74
2022/12/26 14:37:46;;;;;;;;;;;;;;;8.36;100.00;96653.72;5077081;28;19981;-75
2022/12/26 14:40:15;;;;;;;;;;;;;;;8.37;100.00;96651.91;5059195;28;19976;-74
2022/12/26 14:43:09;;;;;;;;;;;;;;;8.37;100.00;96646.66;5077063;28;19950;-74
2022/12/26 14:45:35;;;;;;;;;;;;;;;8.34;100.00;96640.84;5077320;28;19951;-74
2022/12/26 14:48:16;;;;;;;;;;;;;;;8.31;100.00;96637.81;5077153;28;19965;-74
2022/12/26 14:50:42;;;;;;;;;;;;;;;8.29;100.00;96642.41;5077200;28;19952;-74
2022/12/26 14:53:23;;;;;;;;;;;;;;;8.26;100.00;96653.28;5077000;28;19965;-74
2022/12/26 14:56:02;;;;;;;;;;;;;;;8.24;100.00;96648.25;5076823;28;19959;-74
2022/12/26 14:58:48;;;;;;;;;;;;;;;8.24;100.00;96650.06;5077096;28;19967;-74
2022/12/26 15:01:16;;;;;;;;;;;;;;;8.22;100.00;96641.63;5069246;28;20341;-74
2022/12/26 15:03:48;;;;;;;;;;;;;;;8.18;100.00;96641.19;5076745;28;19954;-74
2022/12/26 15:06:17;;;;;;;;;;;;;;;8.15;100.00;96657.28;5076867;28;19952;-74
2022/12/26 15:08:49;;;;;;;;;;;;;;;8.12;100.00;96629.72;5076587;28;19946;-75
2022/12/26 15:11:21;;;;;;;;;;;;;;;8.08;100.00;96628.53;5076864;28;19979;-74
2022/12/26 15:13:47;;;;;;;;;;;;;;;8.07;100.00;96641.78;5059271;28;19962;-74
2022/12/26 15:16:32;;;;;;;;;;;;;;;8.06;100.00;96634.94;5076542;28;19948;-74